Time;durP1;ratioP1;P1;durP2;ratioP2;P2;SDS_P1;SDS_P2;PMS_P1;PMS_P2;Temp;Humidity;BMP_temperature;BMP_pressure;BME280_temperature;BME280_humidity;BME280_pressure;Samples;Min_cycle;Max_cycle;Signal;HPM_P1;HPM_P2
2022/06/25 00:01:15;;;;;;;5.90;4.63;;;19.10;99.90;;;;;;5046384;28;20121;-60
2022/06/25 00:03:41;;;;;;;6.10;5.60;;;19.30;99.90;;;;;;5047969;28;20041;-60
2022/06/25 00:06:07;;;;;;;6.32;5.60;;;19.30;99.90;;;;;;5028857;28;20111;-60
2022/06/25 00:08:35;;;;;;;9.20;6.18;;;19.30;99.90;;;;;;5048206;28;20041;-60
2022/06/25 00:11:01;;;;;;;6.43;5.82;;;19.30;99.90;;;;;;5044730;28;20460;-60
2022/06/25 00:13:27;;;;;;;7.05;5.97;;;19.30;99.90;;;;;;5048077;28;20057;-60
2022/06/25 00:15:53;;;;;;;7.57;6.65;;;19.30;99.90;;;;;;5029901;28;20100;-61
2022/06/25 00:18:19;;;;;;;6.97;6.38;;;19.30;99.90;;;;;;5028952;28;20045;-60
2022/06/25 00:20:46;;;;;;;7.68;6.82;;;19.20;99.90;;;;;;5029099;28;20079;-60
2022/06/25 00:23:12;;;;;;;7.63;6.90;;;19.30;99.90;;;;;;5047223;28;20038;-60
2022/06/25 00:25:38;;;;;;;7.28;6.53;;;19.20;99.90;;;;;;5028503;28;20045;-60
2022/06/25 00:28:04;;;;;;;7.65;6.88;;;19.20;99.90;;;;;;5028776;28;20050;-60
2022/06/25 00:30:30;;;;;;;8.82;8.02;;;19.20;99.90;;;;;;5046447;28;20042;-60
2022/06/25 00:32:56;;;;;;;8.18;7.40;;;19.10;99.90;;;;;;5028974;28;20104;-60
2022/06/25 00:35:22;;;;;;;7.85;7.15;;;19.10;99.90;;;;;;5046633;28;20057;-60
2022/06/25 00:37:48;;;;;;;7.57;6.88;;;19.10;99.90;;;;;;5044707;28;20053;-60
2022/06/25 00:40:14;;;;;;;8.57;7.78;;;19.10;99.90;;;;;;5027957;28;20114;-60
2022/06/25 00:42:48;;;;;;;8.23;7.43;;;19.00;99.90;;;;;;5046354;28;20041;-60
2022/06/25 00:45:13;;;;;;;7.80;6.95;;;19.10;99.90;;;;;;5046529;28;20056;-60
2022/06/25 00:47:39;;;;;;;10.07;8.52;;;19.00;99.90;;;;;;5028483;28;20072;-60
2022/06/25 00:50:05;;;;;;;10.30;9.07;;;19.00;99.90;;;;;;5046087;28;20045;-60
2022/06/25 00:52:36;;;;;;;9.25;8.10;;;18.90;99.90;;;;;;5045953;28;20064;-60
2022/06/25 00:55:12;;;;;;;9.20;8.38;;;18.90;99.90;;;;;;5042787;28;20045;-60
2022/06/25 00:57:43;;;;;;;9.82;8.40;;;18.80;99.90;;;;;;5023834;28;20049;-60
2022/06/25 01:00:11;;;;;;;9.07;8.15;;;18.90;99.90;;;;;;5028246;28;20525;-60
2022/06/25 01:02:39;;;;;;;9.45;8.60;;;18.90;99.90;;;;;;5028377;28;20037;-60
2022/06/25 01:05:06;;;;;;;10.70;9.65;;;18.80;99.90;;;;;;5026447;28;20116;-60
2022/06/25 01:07:34;;;;;;;9.32;8.43;;;18.90;99.90;;;;;;5046034;28;20042;-60
2022/06/25 01:10:00;;;;;;;9.40;7.90;;;18.80;99.90;;;;;;5028399;28;20056;-60
2022/06/25 01:12:26;;;;;;;10.07;9.07;;;18.90;99.90;;;;;;5027723;28;20084;-60
2022/06/25 01:15:04;;;;;;;9.68;8.77;;;18.90;99.90;;;;;;5025291;28;20482;-60
2022/06/25 01:17:30;;;;;;;9.23;8.18;;;18.80;99.90;;;;;;5052549;28;20052;-60
2022/06/25 01:19:55;;;;;;;9.10;8.20;;;18.80;99.90;;;;;;5047187;28;20104;-60
2022/06/25 01:22:21;;;;;;;8.85;7.95;;;18.80;99.90;;;;;;5046314;28;20041;-60
2022/06/25 01:24:47;;;;;;;10.02;7.90;;;18.80;99.90;;;;;;5028801;28;20525;-60
2022/06/25 01:27:16;;;;;;;9.30;8.13;;;18.80;99.90;;;;;;5046643;28;20038;-60
2022/06/25 01:29:43;;;;;;;9.63;8.60;;;18.80;99.90;;;;;;5045851;28;20076;-60
2022/06/25 01:32:12;;;;;;;8.90;8.02;;;18.90;99.90;;;;;;5047103;28;20041;-60
2022/06/25 01:34:38;;;;;;;11.15;9.30;;;18.70;99.90;;;;;;5046489;28;20052;-60
2022/06/25 01:37:04;;;;;;;9.23;8.30;;;18.80;99.90;;;;;;5027793;28;20072;-60
2022/06/25 01:39:29;;;;;;;9.93;8.93;;;18.70;99.90;;;;;;5043996;28;20064;-60
2022/06/25 01:41:55;;;;;;;11.13;10.02;;;18.80;99.90;;;;;;5042520;28;20045;-60
2022/06/25 01:44:21;;;;;;;10.38;9.38;;;18.70;99.90;;;;;;5045051;28;20045;-60
2022/06/25 01:46:46;;;;;;;12.70;11.55;;;18.60;99.90;;;;;;5039439;28;20076;-60
2022/06/25 01:49:12;;;;;;;11.13;10.02;;;18.60;99.90;;;;;;5025069;28;20049;-61
2022/06/25 01:51:38;;;;;;;10.32;9.23;;;18.60;99.90;;;;;;5027505;28;20053;-60
2022/06/25 01:54:03;;;;;;;11.80;10.60;;;18.60;99.90;;;;;;5027666;28;20053;-60
2022/06/25 01:56:29;;;;;;;11.30;10.20;;;18.60;99.90;;;;;;5043419;28;20097;-60
2022/06/25 01:58:55;;;;;;;10.57;9.68;;;18.50;99.90;;;;;;5046232;28;20037;-60
2022/06/25 02:01:20;;;;;;;10.70;9.73;;;18.60;99.90;;;;;;5044788;28;20501;-60
2022/06/25 02:03:46;;;;;;;11.25;10.25;;;18.60;99.90;;;;;;5020585;28;20041;-60
2022/06/25 02:06:12;;;;;;;11.07;10.18;;;18.50;99.90;;;;;;5027348;28;20049;-60
2022/06/25 02:08:38;;;;;;;10.77;9.77;;;18.50;99.90;;;;;;5045532;28;20052;-60
2022/06/25 02:11:08;;;;;;;10.50;9.40;;;18.60;99.90;;;;;;5044913;28;20124;-62
2022/06/25 02:13:34;;;;;;;10.82;9.82;;;18.50;99.90;;;;;;5029650;28;20099;-60
2022/06/25 02:16:01;;;;;;;11.45;10.35;;;18.40;99.90;;;;;;5029636;28;20486;-60
2022/06/25 02:18:27;;;;;;;11.63;10.43;;;18.50;99.90;;;;;;5045974;28;20046;-60
2022/06/25 02:20:53;;;;;;;11.48;10.30;;;18.50;99.90;;;;;;5045613;28;20050;-60
2022/06/25 02:23:21;;;;;;;11.63;10.52;;;18.40;99.90;;;;;;5026762;28;20057;-61
2022/06/25 02:25:46;;;;;;;11.65;10.50;;;18.40;99.90;;;;;;5026574;28;20050;-60
2022/06/25 02:28:13;;;;;;;11.57;10.27;;;18.30;99.90;;;;;;5029977;28;20052;-60
2022/06/25 02:30:39;;;;;;;12.45;11.15;;;18.30;99.90;;;;;;5030928;28;20079;-61
2022/06/25 02:33:08;;;;;;;12.18;11.07;;;18.30;99.90;;;;;;5050499;28;20041;-60
2022/06/25 02:35:34;;;;;;;12.88;11.68;;;18.20;99.90;;;;;;5024948;28;20080;-60
2022/06/25 02:38:00;;;;;;;12.82;11.40;;;18.30;99.90;;;;;;5022749;28;20101;-60
2022/06/25 02:40:25;;;;;;;11.70;10.68;;;18.30;99.90;;;;;;5044272;28;20060;-60
2022/06/25 02:42:51;;;;;;;12.43;11.20;;;18.20;99.90;;;;;;5030742;28;20100;-60
2022/06/25 02:45:17;;;;;;;12.50;11.38;;;18.30;99.90;;;;;;5029654;28;20064;-60
2022/06/25 02:47:42;;;;;;;12.77;11.60;;;18.10;99.90;;;;;;5026286;28;20053;-60
2022/06/25 02:50:08;;;;;;;13.77;11.07;;;18.20;99.90;;;;;;5044249;28;20493;-60
2022/06/25 02:52:34;;;;;;;12.73;11.63;;;18.10;99.90;;;;;;5027520;28;20053;-60
2022/06/25 02:55:00;;;;;;;13.27;11.85;;;18.10;99.90;;;;;;5026576;28;20085;-60
2022/06/25 03:00:10;;;;;;;12.25;11.05;;;18.00;99.90;;;;;;5031865;28;20110;-60
2022/06/25 03:02:36;;;;;;;13.88;12.40;;;18.00;99.90;;;;;;5032668;28;20056;-60
2022/06/25 03:05:02;;;;;;;13.98;12.63;;;17.90;99.90;;;;;;5044176;28;20057;-60
2022/06/25 03:07:29;;;;;;;13.02;11.73;;;18.00;99.90;;;;;;5037877;28;20093;-60
2022/06/25 03:09:54;;;;;;;13.82;12.48;;;18.00;99.90;;;;;;5044341;28;20128;-60
2022/06/25 03:12:20;;;;;;;16.85;12.50;;;18.00;99.90;;;;;;5045163;28;20072;-60
2022/06/25 03:14:46;;;;;;;14.10;12.65;;;18.00;99.90;;;;;;5032854;28;20053;-60
2022/06/25 03:17:12;;;;;;;14.77;13.27;;;18.00;99.90;;;;;;5043674;28;20049;-60
2022/06/25 03:19:38;;;;;;;15.25;13.07;;;17.90;99.90;;;;;;5026447;28;20099;-60
2022/06/25 03:22:04;;;;;;;13.65;12.15;;;17.90;99.90;;;;;;5045494;28;20053;-60
2022/06/25 03:24:29;;;;;;;13.38;12.18;;;17.90;99.90;;;;;;5027143;28;20045;-60
2022/06/25 03:26:55;;;;;;;14.40;13.00;;;17.90;99.90;;;;;;5049684;28;20044;-60
2022/06/25 03:29:21;;;;;;;13.63;12.23;;;17.90;99.90;;;;;;5054359;28;20038;-60
2022/06/25 03:31:46;;;;;;;13.63;12.18;;;18.00;99.90;;;;;;5026079;28;20044;-60
2022/06/25 03:34:12;;;;;;;13.52;12.23;;;18.00;99.90;;;;;;5026291;28;20048;-60
2022/06/25 03:36:38;;;;;;;13.43;12.23;;;17.80;99.90;;;;;;5061235;28;20088;-60
2022/06/25 03:39:04;;;;;;;14.45;13.07;;;17.90;99.90;;;;;;5031790;28;20048;-60
2022/06/25 03:41:33;;;;;;;13.88;12.32;;;17.90;99.90;;;;;;5029913;28;20884;-60
2022/06/25 03:43:59;;;;;;;14.88;13.25;;;17.70;99.90;;;;;;5029377;28;20083;-60
2022/06/25 03:46:25;;;;;;;13.48;11.93;;;17.90;99.90;;;;;;5013976;28;20064;-60
2022/06/25 03:48:51;;;;;;;13.27;11.60;;;17.80;99.90;;;;;;5029687;28;20068;-60
2022/06/25 03:51:17;;;;;;;13.27;11.93;;;17.90;99.90;;;;;;5052073;28;20033;-60
2022/06/25 03:53:43;;;;;;;12.73;11.43;;;17.90;99.90;;;;;;5042110;28;20045;-60
2022/06/25 03:56:09;;;;;;;12.98;11.63;;;17.90;99.90;;;;;;5051047;28;20047;-60
2022/06/25 03:58:35;;;;;;;12.95;11.68;;;18.00;99.90;;;;;;5047596;28;20045;-60
2022/06/25 04:01:01;;;;;;;12.15;11.00;;;17.90;99.90;;;;;;5048220;28;20433;-60
2022/06/25 04:03:27;;;;;;;12.93;11.10;;;18.00;99.90;;;;;;5048579;28;20053;-60
2022/06/25 04:05:52;;;;;;;11.77;10.55;;;18.00;99.90;;;;;;5030866;28;20446;-60
2022/06/25 04:08:18;;;;;;;12.35;11.20;;;17.90;99.90;;;;;;5048014;28;20045;-60
2022/06/25 04:10:44;;;;;;;13.90;11.70;;;18.10;99.90;;;;;;5014279;28;20117;-60
2022/06/25 04:13:10;;;;;;;11.32;10.20;;;18.10;99.90;;;;;;5046501;28;20057;-60
2022/06/25 04:15:36;;;;;;;11.65;10.45;;;17.90;99.90;;;;;;5048947;28;20048;-60
2022/06/25 04:18:03;;;;;;;12.10;11.00;;;17.90;99.90;;;;;;5047517;28;20082;-60
2022/06/25 04:20:29;;;;;;;12.45;11.18;;;18.10;99.90;;;;;;5029227;28;20057;-60
2022/06/25 04:22:54;;;;;;;12.32;11.07;;;18.00;99.90;;;;;;5028449;28;20055;-60
2022/06/25 04:25:20;;;;;;;14.70;12.18;;;18.00;99.90;;;;;;5029058;28;20213;-60
2022/06/25 04:30:30;;;;;;;12.45;11.23;;;18.00;99.90;;;;;;5028435;28;20053;-60
2022/06/25 04:32:56;;;;;;;14.32;12.68;;;17.90;99.90;;;;;;5035353;28;20045;-60
2022/06/25 04:35:22;;;;;;;14.05;12.73;;;17.90;99.90;;;;;;5046463;28;20101;-60
2022/06/25 04:37:48;;;;;;;12.13;10.93;;;17.80;99.90;;;;;;5027679;28;20133;-60
2022/06/25 04:40:14;;;;;;;12.52;11.38;;;17.80;99.90;;;;;;5028549;28;20049;-60
2022/06/25 04:42:39;;;;;;;12.15;11.02;;;17.90;99.90;;;;;;5028705;28;20105;-60
2022/06/25 04:45:06;;;;;;;12.82;11.23;;;17.90;99.90;;;;;;5049326;28;20053;-60
2022/06/25 04:47:31;;;;;;;14.23;11.63;;;17.90;99.90;;;;;;5027873;28;20065;-60
2022/06/25 04:49:57;;;;;;;12.45;11.25;;;17.90;99.90;;;;;;5032994;28;20155;-60
2022/06/25 04:52:23;;;;;;;12.98;11.68;;;17.90;99.90;;;;;;5030277;28;20456;-60
2022/06/25 04:54:48;;;;;;;16.00;11.95;;;17.90;99.90;;;;;;5047517;28;20054;-60
2022/06/25 04:57:14;;;;;;;12.13;11.00;;;17.90;99.90;;;;;;5045823;28;20045;-60
2022/06/25 04:59:40;;;;;;;13.05;10.75;;;17.90;99.90;;;;;;5028021;28;20105;-60
2022/06/25 05:02:06;;;;;;;11.32;10.23;;;18.00;99.90;;;;;;5046119;28;20053;-60
2022/06/25 05:04:31;;;;;;;10.95;9.95;;;18.00;99.90;;;;;;5028229;28;20045;-60
2022/06/25 05:06:58;;;;;;;10.65;9.63;;;17.90;99.90;;;;;;5028774;28;20041;-60
2022/06/25 05:09:26;;;;;;;10.73;9.68;;;18.10;99.90;;;;;;5047994;28;20054;-60
2022/06/25 05:11:52;;;;;;;12.68;9.70;;;18.20;99.90;;;;;;5031324;28;20049;-60
2022/06/25 05:14:17;;;;;;;11.60;9.73;;;18.10;99.90;;;;;;5029982;28;20068;-60
2022/06/25 05:16:45;;;;;;;10.48;9.35;;;18.20;99.90;;;;;;5044779;28;20041;-60
2022/06/25 05:19:12;;;;;;;10.25;9.27;;;18.30;99.90;;;;;;5033610;28;20087;-60
2022/06/25 05:21:38;;;;;;;11.27;10.27;;;18.40;99.90;;;;;;5026983;28;20057;-60
2022/06/25 05:24:04;;;;;;;10.00;9.10;;;18.40;99.90;;;;;;5033757;28;20045;-60
2022/06/25 05:26:30;;;;;;;10.77;9.73;;;18.30;99.90;;;;;;5033319;28;20049;-60
2022/06/25 05:28:56;;;;;;;10.07;9.00;;;18.40;99.90;;;;;;5015128;28;20052;-60
2022/06/25 05:31:22;;;;;;;10.52;9.52;;;18.40;99.90;;;;;;5024389;28;20072;-60
2022/06/25 05:33:49;;;;;;;11.05;9.55;;;18.50;99.90;;;;;;5034038;28;20046;-60
2022/06/25 05:36:15;;;;;;;11.52;9.25;;;18.40;99.90;;;;;;5024257;28;20052;-60
2022/06/25 05:38:41;;;;;;;10.65;9.52;;;18.30;99.90;;;;;;5020152;28;20060;-60
2022/06/25 05:41:09;;;;;;;10.02;9.02;;;18.50;99.90;;;;;;5046269;28;20029;-60
2022/06/25 05:43:39;;;;;;;9.77;8.20;;;18.50;99.90;;;;;;5028477;28;20445;-60
2022/06/25 05:46:06;;;;;;;9.82;8.82;;;18.50;99.90;;;;;;5046075;28;20042;-60
2022/06/25 05:48:32;;;;;;;10.30;9.25;;;18.60;99.90;;;;;;5046048;28;20264;-60
2022/06/25 05:50:57;;;;;;;10.35;9.25;;;18.70;99.90;;;;;;5045794;28;20564;-60
2022/06/25 05:53:24;;;;;;;9.23;8.35;;;18.60;99.90;;;;;;5047610;28;20069;-60
2022/06/25 05:55:50;;;;;;;10.73;9.65;;;18.70;99.90;;;;;;5046265;28;20041;-60
2022/06/25 05:58:16;;;;;;;11.45;8.88;;;18.80;99.90;;;;;;5027923;28;20045;-60
2022/06/25 06:00:42;;;;;;;9.35;8.05;;;18.70;99.90;;;;;;5027078;28;20091;-60
2022/06/25 06:03:09;;;;;;;10.82;8.45;;;18.80;99.90;;;;;;5027042;28;20072;-60
2022/06/25 06:05:35;;;;;;;9.07;8.18;;;18.80;99.90;;;;;;5026940;28;20061;-60
2022/06/25 06:08:01;;;;;;;10.57;7.97;;;18.90;99.90;;;;;;5039580;28;20452;-60
2022/06/25 06:10:28;;;;;;;10.65;8.55;;;18.90;99.90;;;;;;5045588;28;20049;-60
2022/06/25 06:12:53;;;;;;;10.55;7.78;;;19.00;99.90;;;;;;5027194;28;20049;-60
2022/06/25 06:15:19;;;;;;;9.40;8.40;;;19.00;99.90;;;;;;5027335;28;20517;-63
2022/06/25 06:17:45;;;;;;;9.05;7.88;;;19.10;99.90;;;;;;5027138;28;20038;-63
2022/06/25 06:20:11;;;;;;;8.48;7.63;;;19.10;99.90;;;;;;5031727;28;20055;-62
2022/06/25 06:22:37;;;;;;;9.82;7.72;;;19.20;99.90;;;;;;5034381;28;20049;-63
2022/06/25 06:25:03;;;;;;;9.45;7.55;;;19.20;99.90;;;;;;5027115;28;20053;-62
2022/06/25 06:27:29;;;;;;;8.50;7.18;;;19.20;99.90;;;;;;5026741;28;20100;-63
2022/06/25 06:29:55;;;;;;;8.35;6.90;;;19.30;99.90;;;;;;5042808;28;20045;-63
2022/06/25 06:32:21;;;;;;;10.00;7.90;;;19.30;99.90;;;;;;5044483;28;20436;-59
2022/06/25 06:34:47;;;;;;;9.73;7.28;;;19.20;99.90;;;;;;5027473;28;20049;-63
2022/06/25 06:37:12;;;;;;;9.30;6.85;;;19.30;99.90;;;;;;5027314;28;20045;-63
2022/06/25 06:39:38;;;;;;;7.72;6.93;;;19.40;99.90;;;;;;5043931;28;20077;-63
2022/06/25 06:42:04;;;;;;;7.40;6.65;;;19.40;99.90;;;;;;5045315;28;20044;-63
2022/06/25 06:44:30;;;;;;;9.18;6.88;;;19.50;99.90;;;;;;5026781;28;20075;-62
2022/06/25 06:46:56;;;;;;;10.77;6.90;;;19.60;99.90;;;;;;5045107;28;20486;-63
2022/06/25 06:49:21;;;;;;;8.57;7.35;;;19.60;99.90;;;;;;5027408;28;20081;-63
2022/06/25 06:51:47;;;;;;;8.88;6.13;;;19.60;99.90;;;;;;5026135;28;20050;-65
2022/06/25 06:54:13;;;;;;;9.07;6.47;;;19.70;99.90;;;;;;5026449;28;20049;-63
2022/06/25 06:56:38;;;;;;;7.18;5.47;;;19.70;99.90;;;;;;5045570;28;20045;-64
2022/06/25 06:59:04;;;;;;;7.60;5.97;;;19.80;99.90;;;;;;5027650;28;20041;-64
2022/06/25 07:01:30;;;;;;;9.70;6.45;;;19.90;99.90;;;;;;5026738;28;20052;-63
2022/06/25 07:03:56;;;;;;;7.10;5.25;;;19.90;99.90;;;;;;5030919;28;20471;-64
2022/06/25 07:06:22;;;;;;;5.75;5.13;;;19.90;99.90;;;;;;5027423;28;20041;-64
2022/06/25 07:08:48;;;;;;;6.40;5.18;;;19.90;99.90;;;;;;5037590;28;20049;-64
2022/06/25 07:11:29;;;;;;;6.15;5.50;;;19.70;99.90;;;;;;5024718;28;20050;-63
2022/06/25 07:14:00;;;;;;;7.38;5.00;;;20.10;99.90;;;;;;5025741;28;20053;-60
2022/06/25 07:16:28;;;;;;;4.70;4.22;;;20.10;99.90;;;;;;5043844;28;20096;-61
2022/06/25 07:18:58;;;;;;;7.88;5.05;;;20.30;99.90;;;;;;5025939;28;20049;-60
2022/06/25 07:21:24;;;;;;;6.70;4.90;;;20.30;99.90;;;;;;5043478;28;20045;-60
2022/06/25 07:23:51;;;;;;;9.82;4.85;;;20.30;99.90;;;;;;5029352;28;20037;-60
2022/06/25 07:26:18;;;;;;;4.75;4.15;;;20.40;99.90;;;;;;5043709;28;20049;-60
2022/06/25 07:28:43;;;;;;;8.90;4.38;;;20.40;99.90;;;;;;5042182;28;20053;-60
2022/06/25 07:31:09;;;;;;;5.68;4.47;;;20.30;99.90;;;;;;5043210;28;20118;-60
2022/06/25 07:33:35;;;;;;;7.97;3.80;;;20.40;99.90;;;;;;5044237;28;20037;-62
2022/06/25 07:36:01;;;;;;;5.32;3.92;;;20.50;99.90;;;;;;5044643;28;20034;-62
2022/06/25 07:38:26;;;;;;;6.18;4.22;;;20.50;99.90;;;;;;5017043;28;20045;-61
2022/06/25 07:40:52;;;;;;;6.43;3.95;;;20.60;99.90;;;;;;5042989;28;20081;-63
2022/06/25 07:43:18;;;;;;;5.85;4.65;;;20.60;99.90;;;;;;5025901;28;20342;-62
2022/06/25 07:45:44;;;;;;;7.60;4.38;;;20.70;99.90;;;;;;5025736;28;20053;-63
2022/06/25 07:48:09;;;;;;;7.30;3.78;;;20.70;99.90;;;;;;5044691;28;20096;-63
2022/06/25 07:53:20;;;;;;;6.70;3.70;;;20.70;99.90;;;;;;5044096;28;20056;-63
2022/06/25 07:55:45;;;;;;;8.57;3.90;;;20.80;99.90;;;;;;5025661;28;20109;-65
2022/06/25 07:58:12;;;;;;;6.20;3.63;;;20.80;99.90;;;;;;5026386;28;20101;-66
2022/06/25 08:00:38;;;;;;;6.13;3.72;;;20.90;99.90;;;;;;5044536;28;20085;-66
2022/06/25 08:03:04;;;;;;;3.90;3.10;;;20.90;99.90;;;;;;5043699;28;20041;-66
2022/06/25 08:05:29;;;;;;;6.18;3.63;;;20.90;99.90;;;;;;5028893;28;20124;-66
2022/06/25 08:07:55;;;;;;;5.85;4.03;;;20.90;99.90;;;;;;5044647;28;20406;-66
2022/06/25 08:10:21;;;;;;;3.55;3.15;;;21.10;99.90;;;;;;5025939;28;20461;-66
2022/06/25 08:12:47;;;;;;;6.07;5.55;;;21.00;99.90;;;;;;4979733;28;20084;-66
2022/06/25 08:15:14;;;;;;;5.93;3.65;;;21.10;99.90;;;;;;5041071;28;20045;-65
2022/06/25 08:17:40;;;;;;;8.95;3.92;;;21.10;99.90;;;;;;5034862;28;20049;-66
2022/06/25 08:20:06;;;;;;;7.78;3.60;;;21.20;99.90;;;;;;5028658;28;20095;-67
2022/06/25 08:22:32;;;;;;;4.45;3.28;;;21.20;99.90;;;;;;5046327;28;20045;-66
2022/06/25 08:24:57;;;;;;;5.25;3.15;;;21.20;99.90;;;;;;5049850;28;20094;-66
2022/06/25 08:27:24;;;;;;;10.98;3.80;;;21.30;99.90;;;;;;5062651;28;20044;-66
2022/06/25 08:29:50;;;;;;;5.30;3.53;;;21.40;99.90;;;;;;5038904;28;20045;-66
2022/06/25 08:32:15;;;;;;;3.75;3.00;;;21.40;99.90;;;;;;5046559;28;20048;-66
2022/06/25 08:34:41;;;;;;;7.25;3.60;;;21.40;99.90;;;;;;5037544;28;20055;-66
2022/06/25 08:37:07;;;;;;;8.20;3.30;;;21.50;99.90;;;;;;5063541;28;20037;-65
2022/06/25 08:39:33;;;;;;;6.15;3.75;;;21.50;99.90;;;;;;5035839;28;20057;-65
2022/06/25 08:42:03;;;;;;;7.78;3.67;;;21.50;99.90;;;;;;5049142;28;20049;-62
2022/06/25 08:44:33;;;;;;;6.15;3.75;;;21.40;99.90;;;;;;5034227;28;20100;-63
2022/06/25 08:46:59;;;;;;;5.13;3.30;;;21.40;99.90;;;;;;5039141;28;20126;-64
2022/06/25 08:49:26;;;;;;;6.47;4.00;;;21.40;99.90;;;;;;5022865;28;20576;-64
2022/06/25 08:51:57;;;;;;;8.75;4.93;;;21.50;99.90;;;;;;5039253;28;20071;-62
2022/06/25 08:54:24;;;;;;;5.03;4.05;;;21.50;99.90;;;;;;5034185;28;20084;-62
2022/06/25 08:56:50;;;;;;;8.55;4.18;;;21.60;99.90;;;;;;5044206;28;20108;-63
2022/06/25 08:59:17;;;;;;;6.22;3.50;;;21.60;99.90;;;;;;5051908;28;20044;-65
2022/06/25 09:01:44;;;;;;;6.00;3.40;;;21.70;99.90;;;;;;5043363;28;20044;-65
2022/06/25 09:04:10;;;;;;;6.13;4.00;;;21.80;99.90;;;;;;5034042;28;20056;-65
2022/06/25 09:06:35;;;;;;;7.85;4.53;;;22.00;99.90;;;;;;5041153;28;20045;-65
2022/06/25 09:09:09;;;;;;;4.50;3.30;;;22.10;99.90;;;;;;5035845;28;20048;-66
2022/06/25 09:12:10;;;;;;;4.25;3.85;;;22.20;99.90;;;;;;5012681;28;20052;-67
2022/06/25 09:14:37;;;;;;;6.50;3.05;;;22.20;99.90;;;;;;4964844;28;20054;-63
2022/06/25 09:17:12;;;;;;;5.43;3.38;;;22.30;99.90;;;;;;4975960;28;20057;-61
2022/06/25 09:19:48;;;;;;;6.70;3.78;;;22.40;99.90;;;;;;4950791;28;20126;-62
2022/06/25 09:22:22;;;;;;;5.95;3.85;;;22.40;99.90;;;;;;4960941;28;20109;-62
2022/06/25 09:24:57;;;;;;;8.02;3.53;;;22.30;99.90;;;;;;4959935;28;20145;-62
2022/06/25 09:27:33;;;;;;;5.50;3.63;;;22.30;99.90;;;;;;4969847;28;20050;-62
2022/06/25 09:30:08;;;;;;;3.50;3.10;;;22.30;99.90;;;;;;4957747;28;20050;-62
2022/06/25 09:32:57;;;;;;;3.58;3.00;;;22.30;99.90;;;;;;4968248;28;20063;-62
2022/06/25 09:35:35;;;;;;;8.85;3.42;;;22.30;99.90;;;;;;4960896;28;20065;-62
2022/06/25 09:38:08;;;;;;;4.43;3.20;;;22.40;99.90;;;;;;4966595;28;20115;-63
2022/06/25 09:40:36;;;;;;;4.40;3.75;;;22.50;99.90;;;;;;4953723;28;20054;-62
2022/06/25 09:43:15;;;;;;;5.65;4.10;;;22.50;99.90;;;;;;4960837;28;20055;-63
2022/06/25 09:45:52;;;;;;;8.23;4.30;;;22.60;99.90;;;;;;4969099;28;20057;-62
2022/06/25 09:48:20;;;;;;;6.32;3.63;;;22.70;99.90;;;;;;4986434;28;20057;-62
2022/06/25 09:51:05;;;;;;;6.75;4.03;;;22.70;99.90;;;;;;5007900;28;20580;-62
2022/06/25 09:53:31;;;;;;;4.10;3.38;;;22.70;99.90;;;;;;5022835;28;20073;-63
2022/06/25 09:55:57;;;;;;;5.40;4.05;;;22.80;99.90;;;;;;5024691;28;20060;-62
2022/06/25 09:58:25;;;;;;;7.25;5.05;;;22.80;99.90;;;;;;5017748;28;20046;-62
2022/06/25 10:00:52;;;;;;;5.65;3.72;;;22.80;99.90;;;;;;5018709;28;20041;-62
2022/06/25 10:03:18;;;;;;;6.50;3.70;;;22.80;99.90;;;;;;5020594;28;20101;-62
2022/06/25 10:05:44;;;;;;;6.40;3.85;;;22.80;99.90;;;;;;5017117;28;20045;-62
2022/06/25 10:08:13;;;;;;;4.63;3.75;;;22.90;99.90;;;;;;5040534;28;20065;-62
2022/06/25 10:10:41;;;;;;;5.95;3.90;;;22.90;99.90;;;;;;5022801;28;20048;-62
2022/06/25 10:13:07;;;;;;;4.45;3.97;;;22.90;99.90;;;;;;5003670;28;20058;-62
2022/06/25 10:15:34;;;;;;;6.68;3.38;;;22.80;99.90;;;;;;5000253;28;20096;-62
2022/06/25 10:18:03;;;;;;;7.85;3.83;;;22.80;99.90;;;;;;5006006;28;20109;-62
2022/06/25 10:20:30;;;;;;;5.17;3.80;;;22.80;99.90;;;;;;5008639;28;20133;-63
2022/06/25 10:22:57;;;;;;;6.25;4.30;;;22.80;99.90;;;;;;5025055;28;20050;-63
2022/06/25 10:25:25;;;;;;;4.45;3.72;;;22.90;99.90;;;;;;4998090;28;20057;-63
2022/06/25 10:28:02;;;;;;;5.20;3.42;;;22.90;99.90;;;;;;5000077;28;20734;-63
2022/06/25 10:30:37;;;;;;;4.18;2.90;;;23.00;99.90;;;;;;5016523;28;20052;-63
2022/06/25 10:33:03;;;;;;;5.40;3.10;;;22.90;99.90;;;;;;5072074;28;20080;-61
2022/06/25 10:35:35;;;;;;;4.55;2.85;;;22.90;99.90;;;;;;5059280;28;20052;-61
2022/06/25 10:38:07;;;;;;;3.80;3.17;;;23.00;99.90;;;;;;5045567;28;20049;-62
2022/06/25 10:40:46;;;;;;;3.25;2.80;;;23.20;99.90;;;;;;5060099;28;20048;-61
2022/06/25 10:43:35;;;;;;;5.78;2.40;;;23.10;99.90;;;;;;5045055;28;20579;-64
2022/06/25 10:46:20;;;;;;;;;;;23.10;99.90;;;;;;5041499;28;20037;-61
2022/06/25 10:49:04;;;;;;;4.53;2.30;;;23.30;99.90;;;;;;5035667;28;19925;-62
2022/06/25 10:51:33;;;;;;;3.35;2.58;;;23.40;99.90;;;;;;5051134;28;20037;-61
2022/06/25 10:54:01;;;;;;;5.43;2.22;;;23.50;99.90;;;;;;5046561;28;20053;-62
2022/06/25 10:56:31;;;;;;;6.60;2.35;;;23.60;99.90;;;;;;5045812;28;20093;-62
2022/06/25 10:58:58;;;;;;;3.92;2.25;;;23.60;99.90;;;;;;5039302;28;20041;-62
2022/06/25 11:01:28;;;;;;;4.97;2.92;;;23.70;99.90;;;;;;5037310;28;20080;-61
2022/06/25 11:03:59;;;;;;;5.47;2.50;;;23.80;99.90;;;;;;5028371;28;20053;-62
2022/06/25 11:06:30;;;;;;;4.38;2.38;;;23.80;99.90;;;;;;5070491;28;20049;-62
2022/06/25 11:09:13;;;;;;;4.30;2.38;;;23.80;99.90;;;;;;5046284;28;20041;-62
2022/06/25 11:11:41;;;;;;;3.03;2.13;;;23.80;99.90;;;;;;5046507;28;20053;-62
2022/06/25 11:14:15;;;;;;;5.53;2.00;;;23.90;99.90;;;;;;5043686;28;20045;-62
2022/06/25 11:16:41;;;;;;;3.67;2.03;;;23.80;99.90;;;;;;5079210;28;20041;-62
2022/06/25 11:19:07;;;;;;;3.25;1.98;;;23.90;99.90;;;;;;5045747;28;20109;-61
2022/06/25 11:21:36;;;;;;;4.68;2.33;;;24.00;99.90;;;;;;5043928;28;20128;-62
2022/06/25 11:24:10;;;;;;;2.60;1.85;;;24.10;99.90;;;;;;5041125;28;20048;-63
2022/06/25 11:29:26;;;;;;;2.38;2.10;;;24.20;99.90;;;;;;5044911;28;20084;-64
2022/06/25 11:31:53;;;;;;;5.38;1.98;;;23.90;99.90;;;;;;5036202;28;20049;-65
2022/06/25 11:34:20;;;;;;;4.18;2.38;;;24.30;99.90;;;;;;5042377;28;20045;-64
2022/06/25 11:36:56;;;;;;;4.25;1.90;;;24.40;99.90;;;;;;5045297;28;20052;-65
2022/06/25 11:39:22;;;;;;;3.63;2.08;;;24.40;99.90;;;;;;5057700;28;20041;-64
2022/06/25 11:41:52;;;;;;;6.03;2.60;;;24.30;99.90;;;;;;5045028;28;20181;-64
2022/06/25 11:44:18;;;;;;;5.25;2.28;;;24.30;99.90;;;;;;5062515;28;20056;-64
2022/06/25 11:46:46;;;;;;;3.90;2.10;;;24.40;99.90;;;;;;5064041;28;20057;-64
2022/06/25 11:49:12;;;;;;;4.68;2.25;;;24.50;99.90;;;;;;5063838;28;20034;-64
2022/06/25 11:51:46;;;;;;;3.97;2.40;;;24.70;99.90;;;;;;5045768;28;20172;-64
2022/06/25 11:54:13;;;;;;;4.95;2.20;;;24.60;99.90;;;;;;5044253;28;20104;-65
2022/06/25 11:56:53;;;;;;;4.70;2.35;;;24.60;99.90;;;;;;5047363;28;20057;-65
2022/06/25 11:59:27;;;;;;;2.65;2.15;;;24.80;99.90;;;;;;5044905;28;20051;-65
2022/06/25 12:01:54;;;;;;;2.55;1.88;;;24.90;99.90;;;;;;5065865;28;20071;-64
2022/06/25 12:04:20;;;;;;;3.67;2.00;;;24.90;99.90;;;;;;5067592;28;20044;-65
2022/06/25 12:06:47;;;;;;;3.67;1.83;;;24.90;99.90;;;;;;5054066;28;20068;-64
2022/06/25 12:09:19;;;;;;;5.28;2.25;;;24.90;99.90;;;;;;5055053;28;20053;-65
2022/06/25 12:11:52;;;;;;;3.38;2.00;;;25.10;99.90;;;;;;5049337;28;20049;-65
2022/06/25 12:14:31;;;;;;;2.55;1.75;;;25.20;99.90;;;;;;5048230;28;20049;-65
2022/06/25 12:16:59;;;;;;;6.40;2.00;;;25.30;99.90;;;;;;5051643;28;20044;-65
2022/06/25 12:19:49;;;;;;;3.13;1.70;;;25.20;99.90;;;;;;5052888;28;20083;-64
2022/06/25 12:22:19;;;;;;;4.03;1.65;;;25.10;99.90;;;;;;5047993;28;20049;-65
2022/06/25 12:24:49;;;;;;;4.72;1.58;;;25.30;99.90;;;;;;5052586;28;20051;-65
2022/06/25 12:27:15;;;;;;;2.63;1.75;;;25.30;99.90;;;;;;5067623;28;20472;-65
2022/06/25 12:29:44;;;;;;;3.05;1.85;;;25.10;99.90;;;;;;5048554;28;20044;-64
2022/06/25 12:32:09;;;;;;;1.98;1.50;;;24.90;99.90;;;;;;5056068;28;20043;-64
2022/06/25 12:34:48;;;;;;;3.08;1.92;;;24.90;99.90;;;;;;5048481;28;20045;-64
2022/06/25 12:37:32;;;;;;;4.05;2.13;;;24.70;99.90;;;;;;5049192;28;20040;-64
2022/06/25 12:39:59;;;;;;;4.05;2.13;;;24.40;99.90;;;;;;5042005;28;20048;-64
2022/06/25 12:42:28;;;;;;;2.55;1.73;;;24.20;99.90;;;;;;5031904;28;20053;-64
2022/06/25 12:44:55;;;;;;;4.22;1.90;;;24.10;99.90;;;;;;5047928;28;20128;-64
2022/06/25 12:47:22;;;;;;;2.00;1.80;;;24.10;99.90;;;;;;5067374;28;20100;-65
2022/06/25 12:49:53;;;;;;;3.05;2.00;;;23.80;99.90;;;;;;5048898;28;20049;-64
2022/06/25 12:52:21;;;;;;;4.50;1.90;;;23.50;99.90;;;;;;5049537;28;20057;-64
2022/06/25 12:54:50;;;;;;;3.15;2.00;;;23.30;99.90;;;;;;5049201;28;20049;-64